createdAt,value
2023-03-08T00:00:15.617Z,98669.03
2023-03-08T00:03:04.309Z,98667.88
2023-03-08T00:05:53.187Z,98659.72
2023-03-08T00:08:42.022Z,98666.13
2023-03-08T00:11:32.415Z,98676.31
2023-03-08T00:14:22.345Z,98684.09
2023-03-08T00:17:12.805Z,98689.88
2023-03-08T00:20:01.732Z,98695.09
2023-03-08T00:22:50.381Z,98699.25
2023-03-08T00:25:38.975Z,98691.03
2023-03-08T00:28:29.473Z,98690.69
2023-03-08T00:31:18.187Z,98700.91
2023-03-08T00:34:06.979Z,98697.75
2023-03-08T00:36:55.679Z,98707.50
2023-03-08T00:39:44.789Z,98710.63
2023-03-08T00:42:33.833Z,98707.03
2023-03-08T00:45:23.830Z,98714.66
2023-03-08T00:48:12.536Z,98713.97
2023-03-08T00:51:01.462Z,98716.88
2023-03-08T00:53:50.417Z,98707.81
2023-03-08T00:56:39.042Z,98716.31
2023-03-08T00:59:27.889Z,98725.31
2023-03-08T01:02:17.848Z,98723.25
2023-03-08T01:05:07.372Z,98719.53
2023-03-08T01:07:56.079Z,98718.59
2023-03-08T01:10:49.260Z,98717.56
2023-03-08T01:13:37.985Z,98726.03
2023-03-08T01:16:29.048Z,98726.50
2023-03-08T01:19:19.164Z,98717.22
2023-03-08T01:22:07.803Z,98714.88
2023-03-08T01:24:56.378Z,98719.66
2023-03-08T01:27:45.011Z,98725.91
2023-03-08T01:30:33.598Z,98715.00
2023-03-08T01:33:22.860Z,98714.88
2023-03-08T01:36:15.406Z,98709.69
2023-03-08T01:39:04.883Z,98718.59
2023-03-08T01:41:53.855Z,98718.59
2023-03-08T01:44:53.153Z,98720.56
2023-03-08T01:47:41.983Z,98710.03
2023-03-08T01:50:31.029Z,98714.88
2023-03-08T01:53:21.260Z,98705.75
2023-03-08T01:56:13.472Z,98710.03
2023-03-08T01:59:02.783Z,98704.00
2023-03-08T02:01:51.474Z,98704.81
2023-03-08T02:04:41.319Z,98708.88
2023-03-08T02:07:30.146Z,98714.22
2023-03-08T02:10:20.429Z,98709.69
2023-03-08T02:13:10.160Z,98713.28
2023-03-08T02:16:00.265Z,98718.25
2023-03-08T02:18:56.996Z,98709.13
2023-03-08T02:21:45.580Z,98705.41
2023-03-08T02:24:35.630Z,98704.22
2023-03-08T02:27:27.406Z,98718.13
2023-03-08T02:30:18.305Z,98717.44
2023-03-08T02:33:06.993Z,98718.13
2023-03-08T02:35:55.687Z,98718.50
2023-03-08T02:38:44.291Z,98715.47
2023-03-08T02:41:34.397Z,98716.97
2023-03-08T02:44:22.972Z,98715.25
2023-03-08T02:47:11.891Z,98715.94
2023-03-08T02:50:00.481Z,98712.91
2023-03-08T02:52:49.186Z,98730.78
2023-03-08T02:55:38.206Z,98728.00
2023-03-08T02:58:28.644Z,98724.41
2023-03-08T03:01:17.339Z,98720.69
2023-03-08T03:04:06.110Z,98717.94
2023-03-08T03:06:54.659Z,98711.78
2023-03-08T03:09:43.281Z,98723.25
2023-03-08T03:12:32.177Z,98724.41
2023-03-08T03:15:22.388Z,98726.81
2023-03-08T03:18:11.306Z,98730.31
2023-03-08T03:21:05.237Z,98726.84
2023-03-08T03:23:55.716Z,98734.47
2023-03-08T03:26:44.347Z,98734.94
2023-03-08T03:29:33.158Z,98725.78
2023-03-08T03:32:23.471Z,98732.72
2023-03-08T03:35:12.094Z,98741.28
2023-03-08T03:38:00.753Z,98732.72
2023-03-08T03:40:49.338Z,98739.34
2023-03-08T03:43:38.596Z,98740.84
2023-03-08T03:46:27.407Z,98729.72
2023-03-08T03:49:17.403Z,98734.97
2023-03-08T03:52:06.520Z,98743.06
2023-03-08T03:54:55.116Z,98757.41
2023-03-08T03:57:44.738Z,98753.59
2023-03-08T04:00:33.412Z,98746.19
2023-03-08T04:03:22.181Z,98753.13
2023-03-08T04:06:14.731Z,98757.19
2023-03-08T04:09:05.579Z,98759.50
2023-03-08T04:11:54.185Z,98755.81
2023-03-08T04:14:42.940Z,98756.47
2023-03-08T04:17:31.600Z,98757.09
2023-03-08T04:20:20.304Z,98761.69
2023-03-08T04:23:10.285Z,98761.94
2023-03-08T04:25:59.556Z,98762.53
2023-03-08T04:28:48.295Z,98756.84
2023-03-08T04:31:37.254Z,98763.66
2023-03-08T04:34:25.937Z,98765.16
2023-03-08T04:37:14.658Z,98757.28
2023-03-08T04:40:09.214Z,98753.25
2023-03-08T04:42:58.125Z,98751.41
2023-03-08T04:45:46.907Z,98761.59
2023-03-08T04:48:36.187Z,98745.00
2023-03-08T04:51:26.427Z,98762.53
2023-03-08T04:54:15.120Z,98752.66
2023-03-08T04:57:05.469Z,98754.75
2023-03-08T04:59:54.186Z,98752.66
2023-03-08T05:02:42.768Z,98752.66
2023-03-08T05:05:31.626Z,98753.00
2023-03-08T05:08:20.681Z,98755.53
2023-03-08T05:11:09.328Z,98753.13
2023-03-08T05:14:00.246Z,98752.41
2023-03-08T05:16:48.892Z,98757.75
2023-03-08T05:19:37.511Z,98757.84
2023-03-08T05:22:26.144Z,98762.25
2023-03-08T05:25:15.481Z,98762.38
2023-03-08T05:28:04.145Z,98758.22
2023-03-08T05:31:02.243Z,98753.34
2023-03-08T05:33:52.198Z,98748.38
2023-03-08T05:36:42.641Z,98753.72
2023-03-08T05:39:31.673Z,98761.59
2023-03-08T05:42:20.750Z,98774.81
2023-03-08T05:45:10.340Z,98772.00
2023-03-08T05:48:00.361Z,98779.78
2023-03-08T05:50:49.195Z,98768.66
2023-03-08T05:53:38.288Z,98771.31
2023-03-08T05:56:27.040Z,98769.13
2023-03-08T05:59:15.853Z,98770.03
2023-03-08T06:02:04.632Z,98769.81
2023-03-08T06:04:54.697Z,98784.38
2023-03-08T06:07:44.465Z,98777.44
2023-03-08T06:10:33.316Z,98783.91
2023-03-08T06:13:24.620Z,98785.56
2023-03-08T06:16:13.852Z,98786.00
2023-03-08T06:19:03.280Z,98777.53
2023-03-08T06:21:53.226Z,98784.38
2023-03-08T06:24:42.370Z,98787.72
2023-03-08T06:27:31.026Z,98797.44
2023-03-08T06:30:20.163Z,98799.53
2023-03-08T06:33:08.869Z,98791.22
2023-03-08T06:35:59.221Z,98785.31
2023-03-08T06:38:49.865Z,98785.31
2023-03-08T06:41:38.757Z,98773.03
2023-03-08T06:44:27.449Z,98776.75
2023-03-08T06:47:16.056Z,98769.78
2023-03-08T06:50:05.032Z,98759.13
2023-03-08T06:52:53.637Z,98761.66
2023-03-08T06:55:43.728Z,98767.34
2023-03-08T06:58:32.781Z,98776.50
2023-03-08T07:01:21.411Z,98772.31
2023-03-08T07:04:15.200Z,98765.84
2023-03-08T07:07:04.207Z,98771.16
2023-03-08T07:09:52.840Z,98787.16
2023-03-08T07:12:43.713Z,98785.53
2023-03-08T07:15:32.400Z,98785.53
2023-03-08T07:18:21.491Z,98783.53
2023-03-08T07:21:11.027Z,98790.09
2023-03-08T07:24:00.578Z,98785.97
2023-03-08T07:26:49.205Z,98791.75
2023-03-08T07:29:39.213Z,98784.78
2023-03-08T07:32:29.049Z,98789.66
2023-03-08T07:35:18.377Z,98788.03
2023-03-08T07:38:07.002Z,98791.75
2023-03-08T07:40:56.688Z,98792.31
2023-03-08T07:43:45.293Z,98795.00
2023-03-08T07:46:35.309Z,98793.81
2023-03-08T07:49:23.971Z,98791.13
2023-03-08T07:52:12.672Z,98788.03
2023-03-08T07:55:02.704Z,98781.53
2023-03-08T07:57:51.594Z,98782.00
2023-03-08T08:00:40.192Z,98784.28
2023-03-08T08:03:31.915Z,98788.94
2023-03-08T08:06:20.671Z,98781.16
2023-03-08T08:09:10.332Z,98782.44
2023-03-08T08:11:58.921Z,98776.66
2023-03-08T08:14:47.666Z,98777.09
2023-03-08T08:17:36.413Z,98782.78
2023-03-08T08:20:26.810Z,98770.97
2023-03-08T08:23:15.484Z,98767.94
2023-03-08T08:26:06.807Z,98764.03
2023-03-08T08:28:55.911Z,98752.56
2023-03-08T08:31:44.619Z,98766.91
2023-03-08T08:34:33.588Z,98758.34
2023-03-08T08:37:23.744Z,98764.13
2023-03-08T08:40:13.679Z,98754.75
2023-03-08T08:43:02.274Z,98762.06
2023-03-08T08:45:55.716Z,98757.78
2023-03-08T08:48:44.854Z,98746.06
2023-03-08T08:51:34.182Z,98754.66
2023-03-08T08:54:24.275Z,98744.56
2023-03-08T08:57:12.883Z,98738.47
2023-03-08T09:00:01.548Z,98739.63
2023-03-08T09:02:50.222Z,98730.22
2023-03-08T09:05:41.679Z,98719.25
2023-03-08T09:08:30.927Z,98720.28
2023-03-08T09:11:21.204Z,98724.56
2023-03-08T09:14:09.852Z,98707.44
2023-03-08T09:16:58.469Z,98703.16
2023-03-08T09:19:47.519Z,98699.13
2023-03-08T09:22:36.325Z,98689.31
2023-03-08T09:25:25.385Z,98681.97
2023-03-08T09:28:15.494Z,98686.25
2023-03-08T09:31:12.063Z,98676.06
2023-03-08T09:34:01.152Z,98678.72
2023-03-08T09:36:50.164Z,98672.22
2023-03-08T09:39:40.618Z,98666.09
2023-03-08T09:42:31.437Z,98666.47
2023-03-08T09:45:24.992Z,98651.28
2023-03-08T09:48:16.544Z,98649.72
2023-03-08T09:51:06.556Z,98645.44
2023-03-08T09:53:58.704Z,98633.59
2023-03-08T09:56:48.964Z,98638.13
2023-03-08T09:59:42.202Z,98639.38
2023-03-08T10:02:38.902Z,98616.84
2023-03-08T10:05:31.307Z,98621.34
2023-03-08T10:08:24.757Z,98617.63
2023-03-08T10:11:18.193Z,98625.41
2023-03-08T10:14:14.499Z,98626.06
2023-03-08T10:17:06.092Z,98625.47
2023-03-08T10:19:59.083Z,98624.66
2023-03-08T10:22:48.744Z,98609.50
2023-03-08T10:25:37.599Z,98607.41
2023-03-08T10:28:27.721Z,98605.44
2023-03-08T10:31:25.471Z,98602.09
2023-03-08T10:34:16.949Z,98607.63
2023-03-08T10:37:09.017Z,98604.19
2023-03-08T10:39:59.834Z,98595.16
2023-03-08T10:42:54.448Z,98597.16
2023-03-08T10:45:43.373Z,98595.16
2023-03-08T10:48:32.803Z,98594.47
2023-03-08T10:51:23.168Z,98580.56
2023-03-08T10:54:17.070Z,98576.06
2023-03-08T10:57:06.154Z,98583.94
2023-03-08T10:59:54.841Z,98558.13
2023-03-08T11:02:43.554Z,98550.59
2023-03-08T11:05:32.578Z,98539.78
2023-03-08T11:08:23.100Z,98539.72
2023-03-08T11:11:14.964Z,98536.09
2023-03-08T11:14:04.128Z,98531.44
2023-03-08T11:16:59.795Z,98519.97
2023-03-08T11:20:01.102Z,98518.69
2023-03-08T11:22:58.962Z,98511.75
2023-03-08T11:25:49.144Z,98501.09
2023-03-08T11:28:48.810Z,98496.34
2023-03-08T11:31:43.587Z,98479.16
2023-03-08T11:34:44.589Z,98469.78
2023-03-08T11:37:38.262Z,98465.31
2023-03-08T11:40:29.688Z,98457.78
2023-03-08T11:43:29.754Z,98452.25
2023-03-08T11:46:24.360Z,98439.28
2023-03-08T11:49:26.034Z,98437.34
2023-03-08T11:52:23.217Z,98432.56
2023-03-08T11:55:33.860Z,98421.56
2023-03-08T11:58:26.305Z,98410.53
2023-03-08T12:01:18.102Z,98407.38
2023-03-08T12:04:13.352Z,98400.06
2023-03-08T12:07:04.089Z,98397.13
2023-03-08T12:09:58.348Z,98391.31
2023-03-08T12:12:50.690Z,98386.25
2023-03-08T12:15:42.999Z,98385.25
2023-03-08T12:18:37.379Z,98379.16
2023-03-08T12:21:34.256Z,98376.56
2023-03-08T12:24:29.969Z,98378.44
2023-03-08T12:27:22.498Z,98367.44
2023-03-08T12:30:23.889Z,98367.25
2023-03-08T12:33:14.362Z,98361.59
2023-03-08T12:36:04.895Z,98368.47
2023-03-08T12:38:56.700Z,98366.69
2023-03-08T12:41:45.371Z,98365.50
2023-03-08T12:44:34.485Z,98366.31
2023-03-08T12:47:24.063Z,98362.59
2023-03-08T12:50:18.576Z,98360.97
2023-03-08T12:53:24.159Z,98354.34
2023-03-08T12:56:26.299Z,98349.72
2023-03-08T12:59:33.469Z,98349.16
2023-03-08T13:02:31.112Z,98356.03
2023-03-08T13:05:22.656Z,98352.16
2023-03-08T13:08:25.956Z,98354.66
2023-03-08T13:11:16.943Z,98362.75
2023-03-08T13:14:26.667Z,98372.25
2023-03-08T13:17:34.943Z,98370.63
2023-03-08T13:20:26.507Z,98360.97
2023-03-08T13:23:24.939Z,98362.56
2023-03-08T13:26:25.799Z,98361.91
2023-03-08T13:29:18.214Z,98349.16
2023-03-08T13:32:12.048Z,98352.78
2023-03-08T13:35:01.526Z,98345.84
2023-03-08T13:37:58.857Z,98348.25
2023-03-08T13:40:52.906Z,98346.25
2023-03-08T13:43:41.512Z,98345.91
2023-03-08T13:46:31.833Z,98336.31
2023-03-08T13:49:22.761Z,98333.09
2023-03-08T13:52:18.011Z,98327.09
2023-03-08T13:55:09.279Z,98321.69
2023-03-08T13:57:58.088Z,98303.63
2023-03-08T14:00:46.994Z,98298.78
2023-03-08T14:03:37.204Z,98300.41
2023-03-08T14:06:29.900Z,98297.16
2023-03-08T14:09:19.405Z,98298.44
2023-03-08T14:12:09.623Z,98301.34
2023-03-08T14:15:00.824Z,98292.97
2023-03-08T14:17:51.354Z,98285.06
2023-03-08T14:20:41.789Z,98281.50
2023-03-08T14:23:30.729Z,98281.03
2023-03-08T14:26:28.095Z,98275.22
2023-03-08T14:29:21.557Z,98279.56
2023-03-08T14:32:31.358Z,98273.69
2023-03-08T14:35:24.930Z,98263.91
2023-03-08T14:38:24.717Z,98258.91
2023-03-08T14:41:15.975Z,98272.28
2023-03-08T14:44:05.513Z,98263.13
2023-03-08T14:47:14.072Z,98259.72
2023-03-08T14:50:36.857Z,98247.75
2023-03-08T14:53:30.561Z,98248.81
2023-03-08T14:56:22.218Z,98232.97
2023-03-08T14:59:27.873Z,98234.91
2023-03-08T15:02:18.204Z,98229.72
2023-03-08T15:05:09.342Z,98217.72
2023-03-08T15:08:00.487Z,98204.94
2023-03-08T15:10:51.009Z,98190.16
2023-03-08T15:13:40.082Z,98192.97
2023-03-08T15:16:31.753Z,98190.16
2023-03-08T15:19:20.632Z,98191.41
2023-03-08T15:22:09.302Z,98208.03
2023-03-08T15:24:58.165Z,98200.06
2023-03-08T15:27:50.012Z,98208.16
2023-03-08T15:30:38.698Z,98194.81
2023-03-08T15:33:27.385Z,98187.38
2023-03-08T15:36:20.622Z,98184.72
2023-03-08T15:39:10.715Z,98194.41
2023-03-08T15:42:00.535Z,98188.88
2023-03-08T15:44:50.514Z,98174.47
2023-03-08T15:47:39.432Z,98166.88
2023-03-08T15:50:29.361Z,98150.84
2023-03-08T15:53:29.545Z,98150.84
2023-03-08T15:56:25.591Z,98164.72
2023-03-08T15:59:14.242Z,98159.03
2023-03-08T16:02:04.846Z,98150.53
2023-03-08T16:04:55.836Z,98154.81
2023-03-08T16:07:46.865Z,98147.97
2023-03-08T16:10:40.606Z,98141.63
2023-03-08T16:13:32.093Z,98148.56
2023-03-08T16:16:27.627Z,98145.84
2023-03-08T16:19:22.202Z,98144.22
2023-03-08T16:22:11.365Z,98152.78
2023-03-08T16:24:59.969Z,98156.84
2023-03-08T16:27:52.635Z,98148.97
2023-03-08T16:30:42.831Z,98148.22
2023-03-08T16:33:31.625Z,98139.69
2023-03-08T16:36:21.798Z,98139.81
2023-03-08T16:39:10.831Z,98139.50
2023-03-08T16:41:59.574Z,98145.19
2023-03-08T16:44:51.653Z,98137.28
2023-03-08T16:47:40.486Z,98124.47
2023-03-08T16:50:29.139Z,98129.91
2023-03-08T16:53:21.193Z,98133.13
2023-03-08T16:56:10.692Z,98132.03
2023-03-08T16:59:00.788Z,98136.91
2023-03-08T17:01:50.173Z,98135.28
2023-03-08T17:04:38.754Z,98131.81
2023-03-08T17:07:27.636Z,98126.28
2023-03-08T17:10:18.308Z,98120.94
2023-03-08T17:13:07.102Z,98119.50
2023-03-08T17:15:55.785Z,98115.06
2023-03-08T17:18:44.759Z,98125.84
2023-03-08T17:21:38.050Z,98131.09
2023-03-08T17:24:27.944Z,98119.22
2023-03-08T17:27:18.575Z,98124.22
2023-03-08T17:30:10.165Z,98119.75
2023-03-08T17:32:58.899Z,98114.38
2023-03-08T17:35:47.596Z,98105.72
2023-03-08T17:38:36.467Z,98098.66
2023-03-08T17:41:25.449Z,98099.66
2023-03-08T17:44:15.761Z,98099.25
2023-03-08T17:47:04.520Z,98099.75
2023-03-08T17:49:53.437Z,98082.25
2023-03-08T17:52:42.388Z,98088.59
2023-03-08T17:55:31.253Z,98096.84
2023-03-08T17:58:20.583Z,98085.88
2023-03-08T18:01:12.161Z,98097.34
2023-03-08T18:04:01.428Z,98099.75
2023-03-08T18:06:50.198Z,98109.34
2023-03-08T18:09:38.862Z,98108.81
2023-03-08T18:12:27.625Z,98107.47
2023-03-08T18:15:16.262Z,98132.78
2023-03-08T18:18:06.593Z,98124.66
2023-03-08T18:21:01.328Z,98113.94
2023-03-08T18:23:56.030Z,98118.84
2023-03-08T18:26:44.662Z,98116.28
2023-03-08T18:29:37.197Z,98107.00
2023-03-08T18:32:27.983Z,98094.22
2023-03-08T18:35:18.710Z,98095.34
2023-03-08T18:38:07.381Z,98099.66
2023-03-08T18:40:58.166Z,98098.66
2023-03-08T18:43:46.951Z,98098.59
2023-03-08T18:46:35.949Z,98105.09
2023-03-08T18:49:24.740Z,98099.25
2023-03-08T18:52:14.924Z,98100.88
2023-03-08T18:55:04.004Z,98108.19
2023-03-08T18:57:53.076Z,98103.09
2023-03-08T19:00:41.675Z,98107.44
2023-03-08T19:03:30.704Z,98112.38
2023-03-08T19:06:19.693Z,98095.59
2023-03-08T19:09:13.976Z,98091.81
2023-03-08T19:12:03.385Z,98086.97
2023-03-08T19:14:52.993Z,98080.84
2023-03-08T19:17:41.768Z,98079.25
2023-03-08T19:20:31.914Z,98084.97
2023-03-08T19:23:20.799Z,98091.31
2023-03-08T19:26:32.471Z,98084.94
2023-03-08T19:29:22.564Z,98091.06
2023-03-08T19:32:14.012Z,98099.66
2023-03-08T19:35:04.421Z,98099.38
2023-03-08T19:37:53.028Z,98109.63
2023-03-08T19:40:45.171Z,98099.47
2023-03-08T19:43:37.897Z,98098.63
2023-03-08T19:46:26.661Z,98106.22
2023-03-08T19:49:17.201Z,98098.69
2023-03-08T19:52:07.728Z,98100.09
2023-03-08T19:54:56.396Z,98097.03
2023-03-08T19:57:45.086Z,98086.44
2023-03-08T20:00:35.125Z,98084.00
2023-03-08T20:03:23.786Z,98089.09
2023-03-08T20:06:12.428Z,98092.00
2023-03-08T20:09:03.691Z,98093.06
2023-03-08T20:11:57.385Z,98090.41
2023-03-08T20:14:46.966Z,98092.66
2023-03-08T20:17:39.884Z,98097.72
2023-03-08T20:20:28.646Z,98097.84
2023-03-08T20:23:17.409Z,98097.34
2023-03-08T20:26:06.315Z,98094.63
2023-03-08T20:28:56.116Z,98095.50
2023-03-08T20:31:48.018Z,98091.69
2023-03-08T20:34:38.676Z,98095.75
2023-03-08T20:37:27.412Z,98102.28
2023-03-08T20:40:18.092Z,98103.31
2023-03-08T20:43:10.858Z,98112.03
2023-03-08T20:46:01.620Z,98107.59
2023-03-08T20:48:50.757Z,98105.44
2023-03-08T20:51:40.834Z,98114.03
2023-03-08T20:54:29.459Z,98102.06
2023-03-08T20:57:18.204Z,98101.91
2023-03-08T21:00:09.493Z,98105.88
2023-03-08T21:03:01.239Z,98106.53
2023-03-08T21:05:50.007Z,98113.56
2023-03-08T21:08:39.927Z,98107.72
2023-03-08T21:11:28.830Z,98102.59
2023-03-08T21:14:17.376Z,98100.16
2023-03-08T21:17:05.936Z,98099.59
2023-03-08T21:19:54.874Z,98098.56
2023-03-08T21:22:43.444Z,98098.56
2023-03-08T21:25:36.749Z,98094.59
2023-03-08T21:28:25.590Z,98089.28
2023-03-08T21:31:14.506Z,98092.25
2023-03-08T21:34:03.843Z,98088.88
2023-03-08T21:36:52.603Z,98076.31
2023-03-08T21:39:41.200Z,98077.91
2023-03-08T21:42:31.192Z,98075.78
2023-03-08T21:45:19.845Z,98075.78
2023-03-08T21:48:10.449Z,98075.53
2023-03-08T21:50:59.042Z,98063.84
2023-03-08T21:53:47.711Z,98064.03
2023-03-08T21:56:36.413Z,98062.38
2023-03-08T21:59:27.578Z,98063.94
2023-03-08T22:02:16.212Z,98054.84
2023-03-08T22:05:05.023Z,98055.41
2023-03-08T22:07:53.586Z,98048.41
2023-03-08T22:10:42.269Z,98049.53
2023-03-08T22:13:30.820Z,98048.47
2023-03-08T22:16:21.245Z,98049.00
2023-03-08T22:19:11.731Z,98049.00
2023-03-08T22:22:00.763Z,98052.19
2023-03-08T22:24:49.405Z,98044.13
2023-03-08T22:27:38.245Z,98048.97
2023-03-08T22:30:26.854Z,98043.06
2023-03-08T22:33:18.818Z,98040.66
2023-03-08T22:36:08.622Z,98033.81
2023-03-08T22:38:57.208Z,98043.69
2023-03-08T22:41:45.859Z,98043.41
2023-03-08T22:44:34.696Z,98039.06
2023-03-08T22:47:23.822Z,98039.03
2023-03-08T22:50:14.704Z,98029.13
2023-03-08T22:53:03.340Z,98028.84
2023-03-08T22:55:52.279Z,98032.56
2023-03-08T22:58:40.915Z,98031.69
2023-03-08T23:01:30.829Z,98034.06
2023-03-08T23:04:20.179Z,98039.91
2023-03-08T23:07:10.121Z,98041.34
2023-03-08T23:09:59.018Z,98043.22
2023-03-08T23:12:48.367Z,98035.13
2023-03-08T23:15:37.149Z,98035.13
2023-03-08T23:18:25.973Z,98036.22
2023-03-08T23:21:16.107Z,98021.28
2023-03-08T23:24:06.902Z,98016.41
2023-03-08T23:27:01.653Z,98014.50
2023-03-08T23:29:53.365Z,98014.84
2023-03-08T23:32:42.617Z,98021.22
2023-03-08T23:35:31.273Z,98020.78
2023-03-08T23:38:19.861Z,98023.34
2023-03-08T23:41:11.344Z,98025.47
2023-03-08T23:44:01.921Z,98022.75
2023-03-08T23:46:50.462Z,98005.97
2023-03-08T23:49:39.127Z,98004.53
2023-03-08T23:52:27.920Z,97999.78
2023-03-08T23:55:16.526Z,97998.16
2023-03-08T23:58:06.474Z,97993.84
